createdAt,value
2022-08-23T00:00:30.573Z,12.10
2022-08-23T00:05:38.675Z,9.80
2022-08-23T00:10:40.671Z,8.50
2022-08-23T00:15:42.716Z,9.10
2022-08-23T00:20:44.654Z,11.80
2022-08-23T00:25:46.604Z,10.00
2022-08-23T00:30:49.431Z,12.40
2022-08-23T00:35:51.747Z,14.00
2022-08-23T00:40:54.470Z,11.40
2022-08-23T00:46:51.457Z,10.10
2022-08-23T00:51:59.485Z,10.10
2022-08-23T00:57:05.908Z,11.80
2022-08-23T01:02:08.377Z,9.60
2022-08-23T01:07:34.127Z,9.60
2022-08-23T01:12:40.852Z,8.60
2022-08-23T01:17:50.467Z,8.90
2022-08-23T01:22:59.917Z,10.30
2022-08-23T01:28:02.039Z,9.50
2022-08-23T01:33:06.251Z,10.00
2022-08-23T01:38:10.304Z,9.40
2022-08-23T01:43:13.598Z,10.00
2022-08-23T01:48:17.441Z,8.30
2022-08-23T01:53:19.395Z,8.10
2022-08-23T01:58:24.659Z,10.00
2022-08-23T02:03:28.246Z,8.50
2022-08-23T02:08:49.003Z,10.70
2022-08-23T02:13:58.328Z,7.50
2022-08-23T02:19:08.137Z,8.10
2022-08-23T02:24:14.413Z,6.50
2022-08-23T02:29:18.560Z,7.90
2022-08-23T02:34:20.992Z,6.50
2022-08-23T02:39:23.716Z,6.60
2022-08-23T02:44:25.649Z,8.40
2022-08-23T02:49:29.260Z,6.60
2022-08-23T02:54:32.985Z,5.60
2022-08-23T02:59:35.178Z,4.80
2022-08-23T03:04:37.391Z,4.20
2022-08-23T03:09:39.451Z,5.30
2022-08-23T03:19:46.195Z,4.50
2022-08-23T03:24:48.385Z,4.00
2022-08-23T03:29:50.564Z,3.70
2022-08-23T03:34:53.665Z,4.50
2022-08-23T03:39:55.962Z,3.90
2022-08-23T03:45:02.341Z,3.60
2022-08-23T03:50:05.964Z,3.50
2022-08-23T03:55:08.767Z,4.90
2022-08-23T04:05:26.853Z,3.40
2022-08-23T04:10:34.954Z,4.20
2022-08-23T04:15:37.054Z,5.20
2022-08-23T04:20:40.075Z,4.60
2022-08-23T04:25:45.204Z,5.30
2022-08-23T04:30:47.640Z,3.70
2022-08-23T04:35:50.035Z,3.00
2022-08-23T04:41:12.744Z,4.80
2022-08-23T04:46:16.080Z,3.10
2022-08-23T04:51:19.114Z,3.00
2022-08-23T04:56:23.100Z,3.30
2022-08-23T05:01:27.239Z,2.80
2022-08-23T05:06:31.038Z,3.40
2022-08-23T05:11:33.039Z,3.00
2022-08-23T05:16:35.382Z,3.10
2022-08-23T05:21:45.033Z,3.80
2022-08-23T05:26:54.437Z,4.40
2022-08-23T05:31:57.213Z,4.80
2022-08-23T05:37:05.755Z,4.50
2022-08-23T05:42:21.371Z,5.40
2022-08-23T05:47:26.625Z,4.90
2022-08-23T05:52:42.907Z,5.80
2022-08-23T05:57:51.612Z,5.80
2022-08-23T06:02:54.692Z,5.90
2022-08-23T06:07:59.916Z,4.10
2022-08-23T06:13:03.912Z,7.30
2022-08-23T06:18:05.930Z,5.30
2022-08-23T06:23:09.166Z,8.50
2022-08-23T06:28:15.222Z,9.90
2022-08-23T06:33:24.224Z,7.40
2022-08-23T06:38:54.107Z,8.50
2022-08-23T06:44:15.434Z,8.60
2022-08-23T06:49:58.094Z,9.40
2022-08-23T06:55:32.086Z,7.80
2022-08-23T07:00:56.772Z,8.00
2022-08-23T07:06:11.781Z,8.90
2022-08-23T07:11:14.904Z,10.00
2022-08-23T07:21:20.239Z,6.60
2022-08-23T07:31:30.847Z,11.90
2022-08-23T07:36:34.673Z,9.80
2022-08-23T07:41:40.496Z,11.50
2022-08-23T07:46:44.666Z,13.80
2022-08-23T07:51:49.784Z,9.20
2022-08-23T07:56:53.279Z,8.90
2022-08-23T08:02:16.098Z,11.80
2022-08-23T08:07:21.496Z,10.50
2022-08-23T08:12:32.147Z,8.80
2022-08-23T08:17:38.180Z,8.10
2022-08-23T08:22:58.348Z,8.00
2022-08-23T08:28:19.723Z,5.70
2022-08-23T08:33:21.821Z,6.70
2022-08-23T08:38:38.767Z,9.30
2022-08-23T08:44:14.642Z,6.50
2022-08-23T08:49:46.189Z,5.10
2022-08-23T08:54:56.223Z,6.80
2022-08-23T09:00:09.251Z,5.00
2022-08-23T09:06:06.986Z,4.50
2022-08-23T09:11:50.964Z,7.20
2022-08-23T09:17:08.164Z,5.60
2022-08-23T09:22:31.051Z,6.70
2022-08-23T09:27:39.899Z,7.30
2022-08-23T09:32:51.692Z,5.00
2022-08-23T09:38:07.312Z,3.70
2022-08-23T09:43:34.230Z,4.10
2022-08-23T09:48:56.098Z,6.00
2022-08-23T09:54:40.587Z,5.30
2022-08-23T09:59:51.417Z,6.00
2022-08-23T10:05:14.910Z,4.70
2022-08-23T10:10:39.225Z,6.10
2022-08-23T10:15:55.845Z,7.50
2022-08-23T10:21:26.701Z,5.00
2022-08-23T10:26:35.003Z,6.50
2022-08-23T10:31:41.683Z,4.40
2022-08-23T10:36:53.398Z,5.40
2022-08-23T10:47:24.070Z,3.90
2022-08-23T10:52:34.361Z,4.50
2022-08-23T10:57:40.041Z,3.80
2022-08-23T11:02:55.295Z,3.70
2022-08-23T11:08:08.049Z,4.10
2022-08-23T11:13:16.717Z,3.50
2022-08-23T11:18:35.816Z,3.70
2022-08-23T11:23:58.078Z,3.90
2022-08-23T11:29:07.132Z,3.70
2022-08-23T11:34:29.751Z,4.40
2022-08-23T11:39:58.625Z,5.10
2022-08-23T11:45:49.101Z,5.00
2022-08-23T11:51:15.378Z,4.60
2022-08-23T11:56:44.465Z,5.00
2022-08-23T12:01:51.440Z,5.70
2022-08-23T12:07:01.338Z,4.70
2022-08-23T12:12:03.552Z,5.30
2022-08-23T12:17:12.220Z,4.40
2022-08-23T12:22:29.119Z,4.60
2022-08-23T12:33:45.895Z,4.50
2022-08-23T12:39:19.514Z,4.00
2022-08-23T12:44:34.080Z,3.90
2022-08-23T12:49:38.951Z,4.40
2022-08-23T12:54:50.463Z,6.40
2022-08-23T13:00:16.661Z,5.00
2022-08-23T13:05:27.083Z,4.10
2022-08-23T13:10:53.832Z,4.20
2022-08-23T13:16:33.300Z,5.60
2022-08-23T13:21:41.708Z,6.00
2022-08-23T13:26:45.099Z,6.20
2022-08-23T13:32:04.186Z,9.00
2022-08-23T13:37:29.705Z,8.50
2022-08-23T13:42:38.509Z,10.40
2022-08-23T13:47:56.996Z,9.80
2022-08-23T13:53:15.593Z,9.40
2022-08-23T13:58:37.666Z,11.60
2022-08-23T14:03:39.736Z,10.60
2022-08-23T14:08:41.975Z,9.60
2022-08-23T14:13:46.001Z,14.80
2022-08-23T14:24:11.087Z,11.90
2022-08-23T14:34:20.871Z,11.00
2022-08-23T14:39:22.708Z,11.50
2022-08-23T14:44:27.927Z,9.30
2022-08-23T14:49:35.642Z,9.20
2022-08-23T14:54:37.648Z,9.00
2022-08-23T14:59:39.544Z,8.90
2022-08-23T15:09:45.489Z,7.40
2022-08-23T15:14:49.955Z,7.30
2022-08-23T15:19:51.993Z,6.90
2022-08-23T15:29:55.780Z,8.20
2022-08-23T15:34:58.824Z,8.50
2022-08-23T15:40:05.291Z,13.20
2022-08-23T15:45:15.725Z,7.90
2022-08-23T15:50:44.873Z,9.80
2022-08-23T15:55:50.785Z,11.40
2022-08-23T16:00:53.473Z,9.40
2022-08-23T16:05:56.956Z,14.70
2022-08-23T16:11:04.875Z,10.80
2022-08-23T16:16:26.253Z,9.90
2022-08-23T16:21:42.546Z,9.20
2022-08-23T16:26:45.417Z,9.80
2022-08-23T16:31:48.377Z,13.00
2022-08-23T16:37:04.553Z,13.70
2022-08-23T16:42:07.555Z,12.70
2022-08-23T16:47:14.648Z,12.70
2022-08-23T16:52:34.248Z,11.40
2022-08-23T16:57:40.849Z,11.60
2022-08-23T17:02:43.490Z,12.40
2022-08-23T17:07:47.759Z,13.20
2022-08-23T17:12:52.842Z,13.90
2022-08-23T17:18:14.769Z,10.80
2022-08-23T17:23:17.846Z,15.30
2022-08-23T17:28:22.373Z,11.20
2022-08-23T17:33:24.625Z,13.60
2022-08-23T17:38:36.829Z,17.20
2022-08-23T17:43:44.035Z,14.10
2022-08-23T17:48:49.871Z,15.50
2022-08-23T17:53:53.740Z,16.20
2022-08-23T17:58:56.770Z,14.80
2022-08-23T18:04:00.145Z,18.70
2022-08-23T18:09:08.562Z,12.10
2022-08-23T18:14:12.162Z,16.40
2022-08-23T18:19:26.973Z,12.30
2022-08-23T18:24:29.877Z,14.00
2022-08-23T18:34:39.827Z,13.90
2022-08-23T18:39:45.099Z,15.70
2022-08-23T18:44:47.593Z,13.60
2022-08-23T18:49:49.904Z,13.20
2022-08-23T18:59:54.914Z,15.00
2022-08-23T19:10:01.280Z,13.50
2022-08-23T19:15:04.926Z,13.20
2022-08-23T19:20:09.147Z,13.70
2022-08-23T19:25:12.380Z,15.50
2022-08-23T19:30:17.459Z,14.40
2022-08-23T19:35:21.000Z,16.80
2022-08-23T19:40:24.257Z,15.60
2022-08-23T19:45:27.451Z,12.80
2022-08-23T19:50:40.776Z,13.20
2022-08-23T19:55:48.387Z,14.50
2022-08-23T20:00:51.904Z,15.10
2022-08-23T20:05:55.969Z,16.40
2022-08-23T20:10:58.733Z,18.60
2022-08-23T20:16:01.401Z,17.90
2022-08-23T20:21:18.663Z,12.60
2022-08-23T20:26:30.073Z,14.80
2022-08-23T20:31:37.389Z,17.90
2022-08-23T20:36:42.940Z,17.90
2022-08-23T20:41:50.761Z,15.10
2022-08-23T20:47:02.213Z,16.10
2022-08-23T20:52:09.598Z,16.80
2022-08-23T20:57:15.300Z,19.20
2022-08-23T21:02:31.497Z,18.00
2022-08-23T21:07:37.074Z,21.10
2022-08-23T21:12:40.751Z,26.20
2022-08-23T21:17:43.082Z,25.40
2022-08-23T21:22:53.566Z,15.80
2022-08-23T21:28:04.774Z,28.50
2022-08-23T21:33:07.483Z,23.80
2022-08-23T21:38:12.348Z,23.70
2022-08-23T21:43:17.219Z,30.20
2022-08-23T21:48:24.177Z,29.40
2022-08-23T21:53:30.672Z,29.30
2022-08-23T21:58:46.810Z,26.60
2022-08-23T22:03:58.832Z,30.50
2022-08-23T22:09:09.531Z,25.50
2022-08-23T22:14:16.573Z,33.30
2022-08-23T22:19:22.161Z,26.50
2022-08-23T22:24:26.155Z,32.20
2022-08-23T22:29:29.577Z,24.70
2022-08-23T22:34:31.566Z,28.70
2022-08-23T22:39:33.546Z,34.50
2022-08-23T22:44:35.457Z,28.00
2022-08-23T22:49:37.407Z,27.00
2022-08-23T22:54:39.331Z,32.70
2022-08-23T22:59:41.504Z,33.40
2022-08-23T23:04:43.597Z,33.60
2022-08-23T23:09:48.152Z,36.70
2022-08-23T23:14:50.027Z,28.40
2022-08-23T23:20:10.840Z,29.50
2022-08-23T23:25:12.854Z,30.10
2022-08-23T23:30:15.214Z,28.60
2022-08-23T23:40:20.184Z,34.80
2022-08-23T23:45:26.310Z,35.30
2022-08-23T23:50:31.498Z,31.60
2022-08-23T23:55:33.510Z,31.10
